createdAt,value
2022-12-23T00:03:56.339Z,0
2022-12-23T00:08:56.527Z,0
2022-12-23T00:13:55.727Z,0
2022-12-23T00:18:55.639Z,0
2022-12-23T00:23:55.551Z,0
2022-12-23T00:28:56.396Z,0
2022-12-23T00:33:53.554Z,0
2022-12-23T00:38:53.740Z,0
2022-12-23T00:43:53.731Z,0
2022-12-23T00:48:52.969Z,0
2022-12-23T00:53:52.225Z,0
2022-12-23T00:58:51.806Z,0
2022-12-23T01:03:51.566Z,0
2022-12-23T01:08:50.819Z,0
2022-12-23T01:13:50.227Z,0
2022-12-23T01:18:48.220Z,0
2022-12-23T01:23:47.385Z,0
2022-12-23T01:28:47.659Z,0
2022-12-23T01:33:46.451Z,0
2022-12-23T01:38:47.577Z,0
2022-12-23T01:43:44.956Z,0
2022-12-23T01:48:44.898Z,0
2022-12-23T01:53:45.351Z,0
2022-12-23T01:58:45.808Z,0
2022-12-23T02:03:43.410Z,0
2022-12-23T02:08:43.542Z,0
2022-12-23T02:13:43.746Z,0
2022-12-23T02:18:42.280Z,0
2022-12-23T02:23:41.532Z,0
2022-12-23T02:28:40.309Z,0
2022-12-23T02:33:39.373Z,0
2022-12-23T02:38:39.463Z,0
2022-12-23T02:43:38.347Z,0
2022-12-23T02:48:36.180Z,0
2022-12-23T02:53:35.407Z,0
2022-12-23T02:58:24.630Z,0
2022-12-23T03:03:25.298Z,0
2022-12-23T03:08:24.863Z,0
2022-12-23T03:13:22.623Z,0
2022-12-23T03:18:22.692Z,0
2022-12-23T03:23:23.233Z,0
2022-12-23T03:28:22.047Z,0
2022-12-23T03:33:21.106Z,0
2022-12-23T03:38:21.464Z,0
2022-12-23T03:43:22.075Z,0
2022-12-23T03:48:21.197Z,0
2022-12-23T03:53:20.226Z,0
2022-12-23T03:58:20.418Z,0
2022-12-23T03:59:41.805Z,0
2022-12-23T04:04:41.418Z,0
2022-12-23T04:09:38.609Z,0
2022-12-23T04:14:38.799Z,0
2022-12-23T04:19:37.987Z,0
2022-12-23T04:24:39.272Z,0
2022-12-23T04:29:36.261Z,0
2022-12-23T04:34:35.993Z,0
2022-12-23T04:39:35.959Z,0
2022-12-23T04:44:35.938Z,0
2022-12-23T04:49:36.220Z,0
2022-12-23T04:54:33.745Z,0
2022-12-23T04:59:28.595Z,0
2022-12-23T05:04:29.574Z,0
2022-12-23T05:09:27.014Z,0
2022-12-23T05:14:27.513Z,0
2022-12-23T05:19:29.125Z,0
2022-12-23T05:24:25.256Z,0
2022-12-23T05:29:25.002Z,0
2022-12-23T05:34:24.919Z,0
2022-12-23T05:39:12.575Z,0
2022-12-23T05:44:12.394Z,0
2022-12-23T05:49:12.358Z,0
2022-12-23T05:54:11.647Z,0
2022-12-23T05:58:59.921Z,0
2022-12-23T06:03:58.572Z,0
2022-12-23T06:09:02.700Z,0
2022-12-23T06:13:57.031Z,0
2022-12-23T06:18:55.638Z,0
2022-12-23T06:23:55.777Z,0
2022-12-23T06:28:55.194Z,0
2022-12-23T06:33:55.010Z,0
2022-12-23T06:38:53.995Z,0
2022-12-23T06:43:57.138Z,0
2022-12-23T06:48:52.696Z,0
2022-12-23T06:53:53.126Z,0
2022-12-23T06:58:53.120Z,0
2022-12-23T07:03:52.139Z,0
2022-12-23T07:08:51.252Z,0
2022-12-23T07:13:50.999Z,0
2022-12-23T07:18:50.686Z,0
2022-12-23T07:23:50.218Z,0
2022-12-23T07:28:49.452Z,0
2022-12-23T07:33:48.949Z,0
2022-12-23T07:38:48.509Z,0
2022-12-23T07:43:48.199Z,0
2022-12-23T07:48:45.657Z,0
2022-12-23T07:53:45.015Z,0.01
2022-12-23T07:58:45.622Z,0.02
2022-12-23T08:03:45.136Z,0.02
2022-12-23T08:08:45.994Z,0.02
2022-12-23T08:13:43.538Z,0.03
2022-12-23T08:18:45.198Z,0.03
2022-12-23T08:23:42.755Z,0.03
2022-12-23T08:28:44.550Z,0.04
2022-12-23T08:33:39.741Z,0.04
2022-12-23T08:38:39.915Z,0.03
2022-12-23T08:43:39.700Z,0.03
2022-12-23T08:48:40.491Z,0.04
2022-12-23T08:54:02.735Z,0.03
2022-12-23T08:58:26.119Z,0.03
2022-12-23T09:03:27.403Z,0.05
2022-12-23T09:08:24.788Z,0.05
2022-12-23T09:13:37.613Z,0.07
2022-12-23T09:18:25.052Z,0.07
2022-12-23T09:23:24.337Z,0.07
2022-12-23T09:28:23.099Z,0.06
2022-12-23T09:33:22.967Z,0.05
2022-12-23T09:38:21.821Z,0.05
2022-12-23T09:43:21.067Z,0.04
2022-12-23T09:48:30.168Z,0.04
2022-12-23T09:53:30.005Z,0.03
2022-12-23T09:58:30.269Z,0.03
2022-12-23T09:59:52.033Z,0.02
2022-12-23T10:04:51.883Z,0.03
2022-12-23T10:09:51.239Z,0.04
2022-12-23T10:14:50.692Z,0.06
2022-12-23T10:24:48.389Z,0.08
2022-12-23T10:29:47.745Z,0.05
2022-12-23T10:34:48.973Z,0.07
2022-12-23T10:39:45.107Z,0.05
2022-12-23T10:44:45.257Z,0.04
2022-12-23T10:49:44.160Z,0.08
2022-12-23T10:54:43.879Z,0.06
2022-12-23T10:59:26.992Z,0.07
2022-12-23T11:04:26.604Z,0.06
2022-12-23T11:09:27.924Z,0.04
2022-12-23T11:14:24.578Z,0.04
2022-12-23T11:19:24.871Z,0.05
2022-12-23T11:24:24.357Z,0.05
2022-12-23T11:29:12.094Z,0.05
2022-12-23T11:34:12.092Z,0.05
2022-12-23T11:39:12.912Z,0.04
2022-12-23T11:44:12.318Z,0.03
2022-12-23T11:49:11.035Z,0.02
2022-12-23T11:54:10.600Z,0.02
2022-12-23T11:58:57.496Z,0.02
2022-12-23T12:03:57.203Z,0.02
2022-12-23T12:08:57.794Z,0.02
2022-12-23T12:13:55.384Z,0.03
2022-12-23T12:18:58.526Z,0.04
2022-12-23T12:24:21.254Z,0.03
2022-12-23T12:28:53.519Z,0.03
2022-12-23T12:33:54.765Z,0.04
2022-12-23T12:38:53.728Z,0.03
2022-12-23T12:43:52.953Z,0.03
2022-12-23T12:48:51.745Z,0.03
2022-12-23T12:53:53.106Z,0.03
2022-12-23T12:58:51.550Z,0.02
2022-12-23T13:03:53.222Z,0.01
2022-12-23T13:08:48.260Z,0.01
2022-12-23T13:13:49.437Z,0.01
2022-12-23T13:18:48.702Z,0.02
2022-12-23T13:23:48.346Z,0.02
2022-12-23T13:28:45.513Z,0.03
2022-12-23T13:33:46.484Z,0.03
2022-12-23T13:38:46.647Z,0.03
2022-12-23T13:43:45.294Z,0.03
2022-12-23T13:48:44.935Z,0.02
2022-12-23T13:53:44.063Z,0.02
2022-12-23T13:58:44.161Z,0.02
2022-12-23T14:03:44.160Z,0.02
2022-12-23T14:08:43.419Z,0.02
2022-12-23T14:13:43.101Z,0.02
2022-12-23T14:18:42.771Z,0.01
2022-12-23T14:23:43.287Z,0.01
2022-12-23T14:28:39.597Z,0.01
2022-12-23T14:33:39.645Z,0.01
2022-12-23T14:38:38.294Z,0.01
2022-12-23T14:43:38.176Z,0.01
2022-12-23T14:48:35.485Z,0.01
2022-12-23T14:53:35.395Z,0
2022-12-23T14:58:25.366Z,0
2022-12-23T15:03:25.757Z,0
2022-12-23T15:08:24.543Z,0
2022-12-23T15:13:24.039Z,0
2022-12-23T15:18:24.234Z,0
2022-12-23T15:23:23.435Z,0
2022-12-23T15:28:24.734Z,0
2022-12-23T15:34:18.025Z,0
2022-12-23T15:38:21.376Z,0
2022-12-23T15:43:21.510Z,0
2022-12-23T15:48:29.748Z,0
2022-12-23T15:53:29.133Z,0
2022-12-23T15:58:31.237Z,0
2022-12-23T15:59:51.852Z,0
2022-12-23T16:04:52.230Z,0
2022-12-23T16:09:50.795Z,0
2022-12-23T16:14:51.923Z,0
2022-12-23T16:19:48.814Z,0
2022-12-23T16:24:47.959Z,0
2022-12-23T16:29:46.836Z,0
2022-12-23T16:34:46.629Z,0
2022-12-23T16:39:45.779Z,0
2022-12-23T16:44:45.365Z,0
2022-12-23T16:49:45.020Z,0
2022-12-23T16:54:44.942Z,0
2022-12-23T16:59:28.117Z,0
2022-12-23T17:04:28.139Z,0
2022-12-23T17:09:27.628Z,0
2022-12-23T17:14:25.747Z,0
2022-12-23T17:19:32.320Z,0
2022-12-23T17:24:26.122Z,0
2022-12-23T17:29:24.741Z,0
2022-12-23T17:34:25.330Z,0
2022-12-23T17:39:33.840Z,0
2022-12-23T17:44:13.991Z,0
2022-12-23T17:49:15.029Z,0
2022-12-23T17:54:12.900Z,0
2022-12-23T17:58:59.745Z,0
2022-12-23T18:03:56.384Z,0
2022-12-23T18:08:55.832Z,0
2022-12-23T18:13:55.726Z,0
2022-12-23T18:18:54.643Z,0
2022-12-23T18:23:53.339Z,0
2022-12-23T18:28:52.915Z,0
2022-12-23T18:33:52.080Z,0
2022-12-23T18:38:53.041Z,0
2022-12-23T18:43:48.953Z,0
2022-12-23T18:48:48.855Z,0
2022-12-23T18:53:48.092Z,0
2022-12-23T18:58:48.135Z,0
2022-12-23T19:03:45.315Z,0
2022-12-23T19:08:45.443Z,0
2022-12-23T19:13:45.308Z,0
2022-12-23T19:18:45.216Z,0
2022-12-23T19:23:43.542Z,0
2022-12-23T19:28:43.611Z,0
2022-12-23T19:33:42.946Z,0
2022-12-23T19:38:41.900Z,0
2022-12-23T19:43:41.208Z,0
2022-12-23T19:48:41.618Z,0
2022-12-23T19:53:41.522Z,0
2022-12-23T19:58:39.400Z,0
2022-12-23T19:59:59.564Z,0
2022-12-23T20:04:59.778Z,0
2022-12-23T20:09:59.146Z,0
2022-12-23T20:14:58.909Z,0
2022-12-23T20:19:57.995Z,0
2022-12-23T20:24:58.152Z,0
2022-12-23T20:29:57.520Z,0
2022-12-23T20:34:58.760Z,0
2022-12-23T20:39:55.434Z,0
2022-12-23T20:44:54.536Z,0
2022-12-23T20:49:53.915Z,0
2022-12-23T20:54:53.881Z,0
2022-12-23T20:58:56.094Z,0
2022-12-23T21:03:56.171Z,0
2022-12-23T21:08:56.965Z,0
2022-12-23T21:13:57.798Z,0
2022-12-23T21:18:55.192Z,0
2022-12-23T21:23:56.263Z,0
2022-12-23T21:28:56.133Z,0
2022-12-23T21:33:52.265Z,0
2022-12-23T21:38:52.367Z,0
2022-12-23T21:43:51.579Z,0
2022-12-23T21:48:51.412Z,0
2022-12-23T21:53:48.381Z,0
2022-12-23T21:58:48.363Z,0
2022-12-23T22:03:48.190Z,0
2022-12-23T22:08:47.964Z,0
2022-12-23T22:13:47.050Z,0
2022-12-23T22:18:46.753Z,0
2022-12-23T22:23:46.310Z,0
2022-12-23T22:28:46.147Z,0
2022-12-23T22:33:46.731Z,0
2022-12-23T22:38:42.793Z,0
2022-12-23T22:43:43.580Z,0
2022-12-23T22:48:44.363Z,0
2022-12-23T22:53:42.758Z,0
2022-12-23T22:58:43.425Z,0
2022-12-23T23:00:15.721Z,0
2022-12-23T23:05:14.257Z,0
2022-12-23T23:10:01.904Z,0
2022-12-23T23:15:01.312Z,0
2022-12-23T23:20:01.348Z,0
2022-12-23T23:25:01.395Z,0
2022-12-23T23:29:59.808Z,0
2022-12-23T23:35:00.001Z,0
2022-12-23T23:39:59.457Z,0
2022-12-23T23:44:59.080Z,0
2022-12-23T23:49:59.808Z,0
2022-12-23T23:54:55.927Z,0
2022-12-23T23:59:26.403Z,0
